TimePST,TemperatureF,Dew PointF,Humidity,Sea Level PressureIn,VisibilityMPH,Wind Direction,Wind SpeedMPH,Gust SpeedMPH,PrecipitationIn,Events,Conditions,WindDirDegrees,DateUTC
12:15 AM,28.4,26.6,93,30.18,10.0,South,6.9,-,N/A,,Clear,170,2012-12-07 08:15:00
12:35 AM,28.4,26.6,93,30.18,10.0,SSE,5.8,-,N/A,,Clear,150,2012-12-07 08:35:00
12:55 AM,28.4,26.6,93,30.17,10.0,SSE,6.9,-,N/A,,Clear,150,2012-12-07 08:55:00
1:15 AM,28.4,24.8,86,30.17,10.0,South,3.5,-,N/A,,Clear,180,2012-12-07 09:15:00
1:35 AM,24.8,21.2,86,30.18,10.0,NW,4.6,-,N/A,,Clear,310,2012-12-07 09:35:00
1:55 AM,24.8,23.0,93,30.17,10.0,Calm,Calm,-,N/A,,Clear,0,2012-12-07 09:55:00
2:15 AM,24.8,23.0,93,30.17,10.0,NNE,3.5,-,N/A,,Clear,20,2012-12-07 10:15:00
2:35 AM,23.0,21.2,93,30.17,10.0,East,3.5,-,N/A,,Clear,90,2012-12-07 10:35:00
2:55 AM,24.8,23.0,93,30.17,10.0,Calm,Calm,-,N/A,,Clear,0,2012-12-07 10:55:00
3:15 AM,23.0,19.4,86,30.17,10.0,Calm,Calm,-,N/A,,Clear,0,2012-12-07 11:15:00
3:35 AM,23.0,19.4,86,30.16,10.0,Calm,Calm,-,N/A,,Clear,0,2012-12-07 11:35:00
3:55 AM,24.8,21.2,86,30.15,10.0,SSE,3.5,-,N/A,,Clear,160,2012-12-07 11:55:00
4:15 AM,26.6,26.6,100,30.15,10.0,South,4.6,-,N/A,,Clear,180,2012-12-07 12:15:00
4:35 AM,26.6,24.8,93,30.15,10.0,SSW,5.8,-,N/A,,Clear,200,2012-12-07 12:35:00
4:55 AM,26.6,24.8,93,30.15,10.0,South,4.6,-,N/A,,Clear,190,2012-12-07 12:55:00
5:15 AM,26.6,26.6,100,30.15,10.0,South,5.8,-,N/A,,Clear,190,2012-12-07 13:15:00
5:35 AM,26.6,24.8,93,30.14,10.0,SSE,6.9,-,N/A,,Clear,160,2012-12-07 13:35:00
5:55 AM,26.6,24.8,93,30.14,10.0,South,6.9,-,N/A,,Clear,170,2012-12-07 13:55:00
6:15 AM,26.6,24.8,93,30.15,10.0,South,4.6,-,N/A,,Clear,190,2012-12-07 14:15:00
6:35 AM,23.0,21.2,93,30.15,10.0,Calm,Calm,-,N/A,,Clear,0,2012-12-07 14:35:00
6:55 AM,21.2,19.4,93,30.15,10.0,South,3.5,-,N/A,,Clear,180,2012-12-07 14:55:00
7:15 AM,19.4,19.4,100,30.15,10.0,Calm,Calm,-,N/A,,Clear,0,2012-12-07 15:15:00
7:35 AM,19.4,17.6,93,30.15,10.0,NNW,4.6,-,N/A,,Clear,340,2012-12-07 15:35:00
7:55 AM,19.4,17.6,93,30.15,10.0,Calm,Calm,-,N/A,,Clear,0,2012-12-07 15:55:00
8:15 AM,21.2,21.2,100,30.15,10.0,WNW,3.5,-,N/A,,Clear,290,2012-12-07 16:15:00
8:35 AM,26.6,26.6,100,30.15,10.0,Calm,Calm,-,N/A,,Clear,0,2012-12-07 16:35:00
8:55 AM,28.4,28.4,100,30.15,10.0,Calm,Calm,-,N/A,,Clear,0,2012-12-07 16:55:00
9:15 AM,30.2,28.4,93,30.15,10.0,Calm,Calm,-,N/A,,Clear,0,2012-12-07 17:15:00
9:35 AM,30.2,28.4,93,30.15,10.0,Calm,Calm,-,N/A,,Clear,0,2012-12-07 17:35:00
9:55 AM,32.0,28.4,87,30.15,10.0,South,3.5,-,N/A,,Clear,190,2012-12-07 17:55:00
10:15 AM,35.6,28.4,75,30.16,10.0,Calm,Calm,-,N/A,,Clear,0,2012-12-07 18:15:00
10:35 AM,33.8,26.6,75,30.15,10.0,SE,3.5,-,N/A,,Clear,140,2012-12-07 18:35:00
10:55 AM,33.8,28.4,81,30.15,10.0,SE,4.6,-,N/A,,Clear,130,2012-12-07 18:55:00
11:15 AM,33.8,28.4,81,30.13,10.0,ESE,4.6,-,N/A,,Clear,120,2012-12-07 19:15:00
11:35 AM,35.6,28.4,75,30.13,10.0,ESE,4.6,-,N/A,,Clear,110,2012-12-07 19:35:00
11:55 AM,37.4,26.6,65,30.13,10.0,South,5.8,-,N/A,,Clear,170,2012-12-07 19:55:00
12:15 PM,37.4,23.0,56,30.12,10.0,South,6.9,-,N/A,,Clear,170,2012-12-07 20:15:00
12:35 PM,39.2,24.8,56,30.11,10.0,South,8.1,-,N/A,,Clear,190,2012-12-07 20:35:00
12:55 PM,39.2,21.2,49,30.11,10.0,South,9.2,-,N/A,,Clear,190,2012-12-07 20:55:00
1:15 PM,39.2,23.0,52,30.10,10.0,South,8.1,-,N/A,,Clear,170,2012-12-07 21:15:00
1:35 PM,39.2,24.8,56,30.09,10.0,South,8.1,-,N/A,,Clear,170,2012-12-07 21:35:00
1:55 PM,39.2,26.6,61,30.08,10.0,SSE,8.1,-,N/A,,Clear,160,2012-12-07 21:55:00
2:15 PM,39.2,26.6,61,30.07,10.0,South,6.9,-,N/A,,Clear,170,2012-12-07 22:15:00
2:35 PM,39.2,26.6,61,30.07,10.0,SE,4.6,-,N/A,,Clear,140,2012-12-07 22:35:00
2:55 PM,39.2,26.6,61,30.08,10.0,ESE,5.8,-,N/A,,Scattered Clouds,120,2012-12-07 22:55:00
3:15 PM,39.2,26.6,61,30.07,10.0,South,3.5,-,N/A,,Mostly Cloudy,180,2012-12-07 23:15:00
3:35 PM,39.2,24.8,56,30.07,10.0,SSW,3.5,-,N/A,,Scattered Clouds,200,2012-12-07 23:35:00
3:55 PM,39.2,21.2,49,30.07,10.0,SW,3.5,-,N/A,,Clear,230,2012-12-07 23:55:00
4:15 PM,37.4,19.4,48,30.08,10.0,Calm,Calm,-,N/A,,Clear,0,2012-12-08 00:15:00
4:35 PM,35.6,21.2,56,30.09,10.0,WNW,6.9,-,N/A,,Clear,300,2012-12-08 00:35:00
5:15 PM,33.8,17.6,52,30.08,10.0,West,9.2,-,N/A,,Clear,260,2012-12-08 01:15:00
5:35 PM,33.8,17.6,52,30.09,10.0,WSW,8.1,-,N/A,,Clear,240,2012-12-08 01:35:00
5:55 PM,33.8,17.6,52,30.09,10.0,WSW,10.4,-,N/A,,Clear,240,2012-12-08 01:55:00
6:15 PM,33.8,19.4,56,30.08,10.0,WSW,15.0,-,N/A,,Clear,240,2012-12-08 02:15:00
6:35 PM,33.8,19.4,56,30.08,10.0,WSW,12.7,-,N/A,,Clear,240,2012-12-08 02:35:00
6:55 PM,33.8,19.4,56,30.07,10.0,WSW,11.5,-,N/A,,Clear,240,2012-12-08 02:55:00
7:15 PM,33.8,19.4,56,30.08,10.0,WSW,13.8,-,N/A,,Clear,250,2012-12-08 03:15:00
7:55 PM,33.8,21.2,60,30.09,10.0,West,10.4,-,N/A,,Clear,260,2012-12-08 03:55:00
8:35 PM,32.0,21.2,64,30.09,10.0,West,8.1,-,N/A,,Clear,260,2012-12-08 04:35:00
8:55 PM,28.4,21.2,74,30.10,10.0,Calm,Calm,-,N/A,,Clear,0,2012-12-08 04:55:00
9:15 PM,28.4,23.0,80,30.10,10.0,South,5.8,-,N/A,,Clear,180,2012-12-08 05:15:00
9:35 PM,30.2,24.8,80,30.10,10.0,SSW,12.7,17.3,N/A,,Clear,210,2012-12-08 05:35:00
9:55 PM,30.2,24.8,80,30.10,10.0,SW,12.7,-,N/A,,Clear,220,2012-12-08 05:55:00
10:15 PM,30.2,24.8,80,30.10,10.0,SW,12.7,-,N/A,,Clear,220,2012-12-08 06:15:00
10:35 PM,30.2,23.0,75,30.11,10.0,South,5.8,-,N/A,,Clear,180,2012-12-08 06:35:00
10:55 PM,30.2,24.8,80,30.12,10.0,SW,10.4,-,N/A,,Clear,230,2012-12-08 06:55:00
11:15 PM,30.2,24.8,80,30.12,10.0,SW,9.2,17.3,N/A,,Clear,220,2012-12-08 07:15:00
11:35 PM,30.2,23.0,75,30.12,10.0,SW,9.2,19.6,N/A,,Clear,230,2012-12-08 07:35:00
11:55 PM,30.2,24.8,80,30.11,10.0,South,8.1,-,N/A,,Clear,190,2012-12-08 07:55:00